createdAt,value
2018-09-26T00:02:28.222Z,0.69
2018-09-26T00:04:58.735Z,0.64
2018-09-26T00:07:28.861Z,0.61
2018-09-26T00:09:59.201Z,0.60
2018-09-26T00:12:29.335Z,0.61
2018-09-26T00:14:59.971Z,0.64
2018-09-26T00:17:30.281Z,0.70
2018-09-26T00:20:01.351Z,0.74
2018-09-26T00:22:31.320Z,0.77
2018-09-26T00:25:01.479Z,0.85
2018-09-26T00:27:32.088Z,0.94
2018-09-26T00:30:02.100Z,0.90
2018-09-26T00:32:32.212Z,0.92
2018-09-26T00:35:02.552Z,0.96
2018-09-26T00:37:33.300Z,0.99
2018-09-26T00:40:03.241Z,0.88
2018-09-26T00:42:33.219Z,0.82
2018-09-26T00:45:03.369Z,0.83
2018-09-26T00:47:33.345Z,0.80
2018-09-26T00:50:03.506Z,0.73
2018-09-26T00:52:33.466Z,0.61
2018-09-26T00:55:03.903Z,0.56
2018-09-26T00:57:34.964Z,0.49
2018-09-26T01:00:05.414Z,0.51
2018-09-26T01:02:35.473Z,0.46
2018-09-26T01:05:05.559Z,0.40
2018-09-26T01:07:35.678Z,0.43
2018-09-26T01:10:06.602Z,0.41
2018-09-26T01:12:36.486Z,0.37
2018-09-26T01:15:06.714Z,0.30
2018-09-26T01:17:36.654Z,0.24
2018-09-26T01:20:07.205Z,0.23
2018-09-26T01:22:37.183Z,0.26
2018-09-26T01:25:08.659Z,0.29
2018-09-26T01:27:38.521Z,0.31
2018-09-26T01:30:09.318Z,0.26
2018-09-26T01:32:39.217Z,0.19
2018-09-26T01:35:09.686Z,0.25
2018-09-26T01:37:39.748Z,0.24
2018-09-26T01:40:09.863Z,0.20
2018-09-26T01:42:39.700Z,0.16
2018-09-26T01:45:09.666Z,0.15
2018-09-26T01:47:39.579Z,0.22
2018-09-26T01:50:09.924Z,0.22
2018-09-26T01:52:39.725Z,0.16
2018-09-26T01:55:09.973Z,0.14
2018-09-26T01:57:39.954Z,0.03
2018-09-26T02:00:10.126Z,-0.04
2018-09-26T02:02:39.910Z,-0.12
2018-09-26T02:05:09.971Z,-0.11
2018-09-26T02:07:40.542Z,-0.11
2018-09-26T02:10:10.739Z,-0.09
2018-09-26T02:12:41.454Z,-0.10
2018-09-26T02:15:11.669Z,-0.09
2018-09-26T02:17:41.483Z,-0.08
2018-09-26T02:20:11.511Z,-0.17
2018-09-26T02:22:41.462Z,-0.23
2018-09-26T02:25:11.996Z,-0.27
2018-09-26T02:27:42.257Z,-0.25
2018-09-26T02:30:12.709Z,-0.25
2018-09-26T02:32:42.851Z,-0.25
2018-09-26T02:35:13.068Z,-0.28
2018-09-26T02:37:42.775Z,-0.24
2018-09-26T02:40:12.737Z,-0.16
2018-09-26T02:42:42.718Z,-0.16
2018-09-26T02:45:13.179Z,-0.23
2018-09-26T02:47:42.996Z,-0.31
2018-09-26T02:50:13.494Z,-0.34
2018-09-26T02:52:43.381Z,-0.28
2018-09-26T02:55:13.564Z,-0.26
2018-09-26T02:57:43.570Z,-0.27
2018-09-26T03:00:13.458Z,-0.30
2018-09-26T03:02:43.412Z,-0.33
2018-09-26T03:05:13.927Z,-0.41
2018-09-26T03:07:43.634Z,-0.42
2018-09-26T03:10:13.474Z,-0.45
2018-09-26T03:12:43.503Z,-0.41
2018-09-26T03:15:13.562Z,-0.39
2018-09-26T03:17:44.674Z,-0.41
2018-09-26T03:20:15.572Z,-0.45
2018-09-26T03:22:45.611Z,-0.42
2018-09-26T03:25:15.703Z,-0.39
2018-09-26T03:27:45.549Z,-0.32
2018-09-26T03:30:15.569Z,-0.22
2018-09-26T03:32:52.767Z,-0.06
2018-09-26T03:35:24.529Z,0.03
2018-09-26T03:37:59.608Z,0.07
2018-09-26T03:40:33.973Z,0.09
2018-09-26T03:43:03.860Z,0.11
2018-09-26T03:45:33.641Z,0.11
2018-09-26T03:48:03.701Z,0.07
2018-09-26T03:50:33.784Z,0.05
2018-09-26T03:53:04.159Z,0.07
2018-09-26T03:55:34.258Z,0.05
2018-09-26T03:58:04.318Z,0.05
2018-09-26T04:00:34.337Z,0.05
2018-09-26T04:03:04.177Z,-0.01
2018-09-26T04:05:34.484Z,-0.09
2018-09-26T04:08:04.413Z,-0.13
2018-09-26T04:10:34.276Z,-0.12
2018-09-26T04:13:04.391Z,-0.17
2018-09-26T04:15:38.432Z,-0.24
2018-09-26T04:18:08.916Z,-0.28
2018-09-26T04:20:39.575Z,-0.25
2018-09-26T04:23:09.625Z,-0.28
2018-09-26T04:25:39.761Z,-0.28
2018-09-26T04:28:10.491Z,-0.31
2018-09-26T04:30:40.597Z,-0.32
2018-09-26T04:33:11.137Z,-0.34
2018-09-26T04:35:40.974Z,-0.35
2018-09-26T04:38:11.632Z,-0.39
2018-09-26T04:40:41.759Z,-0.44
2018-09-26T04:43:11.868Z,-0.46
2018-09-26T04:45:41.991Z,-0.52
2018-09-26T04:48:11.807Z,-0.56
2018-09-26T04:50:41.832Z,-0.48
2018-09-26T04:53:11.844Z,-0.34
2018-09-26T04:55:42.037Z,-0.20
2018-09-26T04:58:12.151Z,-0.11
2018-09-26T05:00:42.442Z,-0.09
2018-09-26T05:03:12.307Z,-0.10
2018-09-26T05:05:42.477Z,-0.17
2018-09-26T05:08:12.697Z,-0.22
2018-09-26T05:10:42.769Z,-0.23
2018-09-26T05:13:12.840Z,-0.30
2018-09-26T05:15:43.016Z,-0.33
2018-09-26T05:18:13.027Z,-0.36
2018-09-26T05:20:43.151Z,-0.39
2018-09-26T05:23:13.048Z,-0.39
2018-09-26T05:25:42.857Z,-0.39
2018-09-26T05:28:12.716Z,-0.34
2018-09-26T05:30:43.036Z,-0.24
2018-09-26T05:33:12.872Z,-0.08
2018-09-26T05:35:42.896Z,0.02
2018-09-26T05:38:12.815Z,0.10
2018-09-26T05:40:42.983Z,0.20
2018-09-26T05:43:13.218Z,0.27
2018-09-26T05:45:44.211Z,0.34
2018-09-26T05:48:14.146Z,0.43
2018-09-26T05:50:44.345Z,0.57
2018-09-26T05:53:14.485Z,0.67
2018-09-26T05:55:45.447Z,0.74
2018-09-26T05:58:15.549Z,0.81
2018-09-26T06:00:45.629Z,0.88
2018-09-26T06:03:16.495Z,0.98
2018-09-26T06:06:00.518Z,1.07
2018-09-26T06:08:36.258Z,1.15
2018-09-26T06:11:07.261Z,1.22
2018-09-26T06:13:37.230Z,1.29
2018-09-26T06:16:07.540Z,1.43
2018-09-26T06:21:59.519Z,1.78
2018-09-26T06:24:42.516Z,1.93
2018-09-26T06:28:21.723Z,2.08
2018-09-26T06:30:56.062Z,2.29
2018-09-26T06:33:27.324Z,2.44
2018-09-26T06:36:01.440Z,2.60
2018-09-26T06:38:49.181Z,2.79
2018-09-26T06:41:19.520Z,2.96
2018-09-26T06:43:50.868Z,3.09
2018-09-26T06:46:21.962Z,3.23
2018-09-26T06:48:54.061Z,3.40
2018-09-26T06:51:25.200Z,3.57
2018-09-26T06:54:07.764Z,3.72
2018-09-26T06:56:38.064Z,3.89
2018-09-26T06:59:11.472Z,4.05
2018-09-26T07:01:41.907Z,4.22
2018-09-26T07:04:20.844Z,4.37
2018-09-26T07:06:55.684Z,4.49
2018-09-26T07:09:29.768Z,4.65
2018-09-26T07:12:02.310Z,4.84
2018-09-26T07:14:42.305Z,4.99
2018-09-26T07:17:13.124Z,5.19
2018-09-26T07:32:54.101Z,6.09
2018-09-26T07:35:46.633Z,6.33
2018-09-26T07:38:35.149Z,6.49
2018-09-26T07:50:09.034Z,7.58
2018-09-26T07:52:56.243Z,7.99
2018-09-26T08:00:31.893Z,9.24
2018-09-26T08:06:00.592Z,10.56
2018-09-26T08:08:41.121Z,10.98
2018-09-26T08:20:16.174Z,11.74
2018-09-26T08:22:46.898Z,11.91
2018-09-26T08:25:59.913Z,12.09
2018-09-26T08:31:57.185Z,12.19
2018-09-26T08:34:47.090Z,12.24
2018-09-26T08:43:28.157Z,12.72
2018-09-26T08:46:39.953Z,13.03
2018-09-26T08:49:18.661Z,13.35
2018-09-26T08:54:43.878Z,13.56
2018-09-26T08:57:14.813Z,13.36
2018-09-26T08:59:45.155Z,13.53
2018-09-26T09:02:15.514Z,13.65
2018-09-26T09:04:46.333Z,13.70
2018-09-26T09:07:18.591Z,13.98
2018-09-26T09:09:48.789Z,14.11
2018-09-26T09:12:19.907Z,14.23
2018-09-26T09:14:50.161Z,14.41
2018-09-26T09:17:21.332Z,14.57
2018-09-26T09:19:53.363Z,14.64
2018-09-26T09:22:23.640Z,14.70
2018-09-26T09:24:56.199Z,14.80
2018-09-26T09:27:26.694Z,14.79
2018-09-26T09:29:57.854Z,14.76
2018-09-26T09:32:37.211Z,14.84
2018-09-26T09:35:07.595Z,14.88
2018-09-26T09:37:37.921Z,15.01
2018-09-26T09:40:08.501Z,15.01
2018-09-26T09:42:39.054Z,14.88
2018-09-26T09:45:09.404Z,14.92
2018-09-26T09:47:39.871Z,15.05
2018-09-26T09:50:11.520Z,15.22
2018-09-26T09:52:42.701Z,15.35
2018-09-26T09:55:12.806Z,15.52
2018-09-26T09:57:45.079Z,15.39
2018-09-26T10:00:16.500Z,15.40
2018-09-26T10:02:52.091Z,15.44
2018-09-26T10:05:22.759Z,15.49
2018-09-26T10:07:53.083Z,15.56
2018-09-26T10:10:24.466Z,15.65
2018-09-26T10:12:56.816Z,15.77
2018-09-26T10:15:28.052Z,15.87
2018-09-26T10:17:58.252Z,16.04
2018-09-26T10:20:29.037Z,16.27
2018-09-26T10:23:21.967Z,16.31
2018-09-26T10:28:40.169Z,16.28
2018-09-26T10:31:14.222Z,16.32
2018-09-26T10:33:44.580Z,16.23
2018-09-26T10:36:16.651Z,16.37
2018-09-26T10:38:46.925Z,16.50
2018-09-26T10:41:17.932Z,16.41
2018-09-26T10:46:50.578Z,16.26
2018-09-26T10:49:22.960Z,16.25
2018-09-26T10:55:03.837Z,16.84
2018-09-26T10:57:34.037Z,16.91
2018-09-26T11:00:44.081Z,17.06
2018-09-26T11:03:26.619Z,17.02
2018-09-26T11:06:30.022Z,17.08
2018-09-26T11:09:08.201Z,17.03
2018-09-26T11:29:40.046Z,17.73
2018-09-26T11:32:10.764Z,17.85
2018-09-26T11:34:45.959Z,17.98
2018-09-26T11:37:20.220Z,18.20
2018-09-26T11:39:50.890Z,18.19
2018-09-26T11:42:21.298Z,17.99
2018-09-26T11:44:53.165Z,18.02
2018-09-26T11:47:23.591Z,17.96
2018-09-26T11:49:54.523Z,17.90
2018-09-26T11:52:33.847Z,17.96
2018-09-26T11:55:05.883Z,18.09
2018-09-26T11:57:36.310Z,17.97
2018-09-26T12:00:13.943Z,17.80
2018-09-26T12:02:45.336Z,17.79
2018-09-26T12:07:58.452Z,17.80
2018-09-26T12:10:29.852Z,17.72
2018-09-26T12:13:02.671Z,17.41
2018-09-26T12:15:33.931Z,17.38
2018-09-26T12:18:04.389Z,17.39
2018-09-26T12:20:34.915Z,17.30
2018-09-26T12:23:05.552Z,17.28
2018-09-26T12:25:39.534Z,17.29
2018-09-26T12:28:10.629Z,17.22
2018-09-26T12:30:42.143Z,17.35
2018-09-26T12:33:12.600Z,17.40
2018-09-26T12:35:42.897Z,17.45
2018-09-26T12:38:13.066Z,17.45
2018-09-26T12:40:43.389Z,17.39
2018-09-26T12:43:13.881Z,17.30
2018-09-26T12:45:44.002Z,17.20
2018-09-26T12:48:14.505Z,17.29
2018-09-26T12:53:25.437Z,17.50
2018-09-26T12:55:55.714Z,17.62
2018-09-26T12:58:26.342Z,17.58
2018-09-26T13:00:57.475Z,17.53
2018-09-26T13:03:59.581Z,17.65
2018-09-26T13:06:40.931Z,17.86
2018-09-26T13:28:00.158Z,18.06
2018-09-26T13:36:10.116Z,18.11
2018-09-26T13:58:53.707Z,18.28
2018-09-26T14:01:45.635Z,18.31
2018-09-26T14:10:57.653Z,18.72
2018-09-26T14:16:33.580Z,18.47
2018-09-26T14:19:04.384Z,18.40
2018-09-26T14:21:36.422Z,18.68
2018-09-26T14:24:10.422Z,18.85
2018-09-26T14:26:40.664Z,18.86
2018-09-26T14:29:12.256Z,18.78
2018-09-26T14:31:42.497Z,18.68
2018-09-26T14:34:13.064Z,18.49
2018-09-26T14:36:43.815Z,18.35
2018-09-26T14:39:14.803Z,18.32
2018-09-26T14:41:44.859Z,18.30
2018-09-26T14:44:15.025Z,18.27
2018-09-26T14:46:45.350Z,18.13
2018-09-26T14:49:17.450Z,18.07
2018-09-26T14:51:47.951Z,18.09
2018-09-26T14:54:18.651Z,17.98
2018-09-26T14:56:49.054Z,17.80
2018-09-26T14:59:19.509Z,17.68
2018-09-26T15:01:49.971Z,17.65
2018-09-26T15:04:20.689Z,17.75
2018-09-26T15:06:50.831Z,17.77
2018-09-26T15:09:21.271Z,17.68
2018-09-26T15:11:51.859Z,17.66
2018-09-26T15:14:23.594Z,17.54
2018-09-26T15:16:53.730Z,17.58
2018-09-26T15:19:23.908Z,17.49
2018-09-26T15:21:54.689Z,17.39
2018-09-26T15:24:25.013Z,17.42
2018-09-26T15:26:56.828Z,17.38
2018-09-26T15:29:27.009Z,17.28
2018-09-26T15:32:04.017Z,17.06
2018-09-26T16:14:47.103Z,12.67
2018-09-26T16:20:09.635Z,12.04
2018-09-26T16:22:47.196Z,11.76
2018-09-26T16:25:23.273Z,11.47
2018-09-26T16:27:59.105Z,11.27
2018-09-26T16:30:31.175Z,10.95
2018-09-26T16:33:02.405Z,10.65
2018-09-26T16:35:33.882Z,10.41
2018-09-26T16:38:04.388Z,10.25
2018-09-26T16:40:35.686Z,10.09
2018-09-26T16:43:06.746Z,9.90
2018-09-26T17:00:15.553Z,8.65
2018-09-26T17:02:49.156Z,8.45
2018-09-26T17:05:19.435Z,8.35
2018-09-26T17:11:26.020Z,7.99
2018-09-26T17:13:57.689Z,7.88
2018-09-26T17:16:28.732Z,7.77
2018-09-26T17:18:59.138Z,7.68
2018-09-26T17:21:30.911Z,7.61
2018-09-26T17:24:01.451Z,7.56
2018-09-26T17:26:31.733Z,7.45
2018-09-26T17:29:04.580Z,7.34
2018-09-26T17:31:35.104Z,7.29
2018-09-26T17:34:05.380Z,7.25
2018-09-26T17:36:38.413Z,7.16
2018-09-26T17:39:10.324Z,7.10
2018-09-26T17:41:46.680Z,7.06
2018-09-26T17:44:17.065Z,7.03
2018-09-26T17:47:02.353Z,6.96
2018-09-26T17:49:32.596Z,6.83
2018-09-26T17:52:03.735Z,6.71
2018-09-26T17:54:37.637Z,6.61
2018-09-26T17:57:08.057Z,6.56
2018-09-26T17:59:38.407Z,6.50
2018-09-26T18:02:09.332Z,6.50
2018-09-26T18:04:39.877Z,6.41
2018-09-26T18:07:10.131Z,6.37
2018-09-26T18:09:50.914Z,6.32
2018-09-26T18:15:05.273Z,6.10
2018-09-26T18:17:36.591Z,6.06
2018-09-26T18:20:06.749Z,6.08
2018-09-26T18:22:42.217Z,6.09
2018-09-26T18:25:16.976Z,5.99
2018-09-26T18:27:47.116Z,5.92
2018-09-26T18:30:17.496Z,5.90
2018-09-26T18:32:47.872Z,5.87
2018-09-26T18:35:18.962Z,5.80
2018-09-26T18:37:49.383Z,5.74
2018-09-26T18:40:19.693Z,5.74
2018-09-26T18:42:50.330Z,5.70
2018-09-26T18:45:21.467Z,5.60
2018-09-26T18:47:52.741Z,5.58
2018-09-26T18:50:23.708Z,5.55
2018-09-26T18:52:53.854Z,5.57
2018-09-26T18:55:27.019Z,5.53
2018-09-26T18:57:57.654Z,5.48
2018-09-26T19:03:16.870Z,5.28
2018-09-26T19:05:47.290Z,5.23
2018-09-26T19:08:20.902Z,5.17
2018-09-26T19:10:52.819Z,5.07
2018-09-26T19:13:24.318Z,5.03
2018-09-26T19:15:58.174Z,4.99
2018-09-26T19:18:30.324Z,4.96
2018-09-26T19:21:01.837Z,4.96
2018-09-26T19:23:31.832Z,4.87
2018-09-26T19:26:02.560Z,4.86
2018-09-26T19:28:32.676Z,4.80
2018-09-26T19:31:02.909Z,4.74
2018-09-26T19:33:33.615Z,4.70
2018-09-26T19:36:05.859Z,4.65
2018-09-26T19:38:36.190Z,4.62
2018-09-26T19:41:06.696Z,4.60
2018-09-26T19:43:38.436Z,4.60
2018-09-26T19:46:12.857Z,4.62
2018-09-26T19:48:50.853Z,4.60
2018-09-26T19:51:22.496Z,4.65
2018-09-26T19:53:56.649Z,4.72
2018-09-26T19:56:28.166Z,4.73
2018-09-26T19:58:59.512Z,4.82
2018-09-26T20:01:31.142Z,4.84
2018-09-26T20:04:01.370Z,4.84
2018-09-26T20:06:31.589Z,4.87
2018-09-26T20:11:52.374Z,4.86
2018-09-26T20:14:23.570Z,4.85
2018-09-26T20:16:53.762Z,4.83
2018-09-26T20:19:24.097Z,4.81
2018-09-26T20:21:54.288Z,4.77
2018-09-26T20:24:24.384Z,4.75
2018-09-26T20:26:54.816Z,4.69
2018-09-26T20:29:25.152Z,4.69
2018-09-26T20:31:55.802Z,4.71
2018-09-26T20:34:26.741Z,4.73
2018-09-26T20:36:57.016Z,4.72
2018-09-26T20:39:26.999Z,4.69
2018-09-26T20:41:57.577Z,4.66
2018-09-26T20:44:27.868Z,4.69
2018-09-26T20:46:57.988Z,4.67
2018-09-26T20:49:28.209Z,4.65
2018-09-26T20:51:58.997Z,4.64
2018-09-26T20:54:29.014Z,4.65
2018-09-26T20:56:59.171Z,4.70
2018-09-26T20:59:29.991Z,4.73
2018-09-26T21:02:00.357Z,4.76
2018-09-26T21:04:30.410Z,4.78
2018-09-26T21:07:00.658Z,4.79
2018-09-26T21:09:30.660Z,4.78
2018-09-26T21:12:00.881Z,4.77
2018-09-26T21:14:30.793Z,4.74
2018-09-26T21:17:00.807Z,4.73
2018-09-26T21:19:30.752Z,4.79
2018-09-26T21:22:01.328Z,4.85
2018-09-26T21:24:31.380Z,4.86
2018-09-26T21:27:01.773Z,4.80
2018-09-26T21:29:32.033Z,4.76
2018-09-26T21:32:02.211Z,4.76
2018-09-26T21:34:32.197Z,4.72
2018-09-26T21:37:02.681Z,4.72
2018-09-26T21:39:32.674Z,4.71
2018-09-26T21:42:02.896Z,4.71
2018-09-26T21:44:33.281Z,4.71
2018-09-26T21:47:03.464Z,4.69
2018-09-26T21:49:34.272Z,4.65
2018-09-26T21:52:04.820Z,4.65
2018-09-26T21:54:34.842Z,4.64
2018-09-26T21:57:05.627Z,4.62
2018-09-26T21:59:35.672Z,4.55
2018-09-26T22:02:05.821Z,4.51
2018-09-26T22:04:36.279Z,4.45
2018-09-26T22:07:06.418Z,4.41
2018-09-26T22:09:36.597Z,4.33
2018-09-26T22:12:06.674Z,4.27
2018-09-26T22:14:36.740Z,4.26
2018-09-26T22:17:06.799Z,4.17
2018-09-26T22:19:37.543Z,4.08
2018-09-26T22:22:07.567Z,3.98
2018-09-26T22:24:37.653Z,3.93
2018-09-26T22:27:07.791Z,3.84
2018-09-26T22:29:37.788Z,3.80
2018-09-26T22:32:08.342Z,3.76
2018-09-26T22:34:39.114Z,3.74
2018-09-26T22:37:09.506Z,3.71
2018-09-26T22:39:39.712Z,3.67
2018-09-26T22:42:09.788Z,3.63
2018-09-26T22:44:39.698Z,3.56
2018-09-26T22:47:09.768Z,3.50
2018-09-26T22:49:39.751Z,3.48
2018-09-26T22:52:10.150Z,3.49
2018-09-26T22:54:40.116Z,3.51
2018-09-26T22:57:10.160Z,3.51
2018-09-26T22:59:40.055Z,3.49
2018-09-26T23:02:10.228Z,3.49
2018-09-26T23:04:40.120Z,3.40
2018-09-26T23:07:10.248Z,3.29
2018-09-26T23:09:40.351Z,3.23
2018-09-26T23:12:10.530Z,3.17
2018-09-26T23:14:40.418Z,3.13
2018-09-26T23:17:10.562Z,3.13
2018-09-26T23:19:40.473Z,3.21
2018-09-26T23:22:10.521Z,3.24
2018-09-26T23:24:40.448Z,3.27
2018-09-26T23:27:10.668Z,3.27
2018-09-26T23:29:40.656Z,3.23
2018-09-26T23:32:10.888Z,3.21
2018-09-26T23:34:40.991Z,3.21
2018-09-26T23:37:11.175Z,3.29
2018-09-26T23:39:40.963Z,3.37
2018-09-26T23:42:10.891Z,3.39
2018-09-26T23:44:40.974Z,3.47
2018-09-26T23:47:11.228Z,3.53
2018-09-26T23:49:41.284Z,3.51
2018-09-26T23:52:11.461Z,3.47
2018-09-26T23:54:41.471Z,3.44
2018-09-26T23:57:11.545Z,3.52
2018-09-26T23:59:41.446Z,3.72
